sensor_id;sensor_type;location;lat;lon;timestamp;P1;durP1;ratioP1;P2;durP2;ratioP2
82869;SDS011;72645;47.136;15.420;2024-02-26T00:01:47;3.30;;;1.70;;
82869;SDS011;72645;47.136;15.420;2024-02-26T00:04:18;3.80;;;1.70;;
82869;SDS011;72645;47.136;15.420;2024-02-26T00:06:50;3.70;;;1.50;;
82869;SDS011;72645;47.136;15.420;2024-02-26T00:09:22;4.30;;;1.90;;
82869;SDS011;72645;47.136;15.420;2024-02-26T00:11:53;3.80;;;1.70;;
82869;SDS011;72645;47.136;15.420;2024-02-26T00:14:25;2.50;;;1.90;;
82869;SDS011;72645;47.136;15.420;2024-02-26T00:16:56;1.90;;;1.70;;
82869;SDS011;72645;47.136;15.420;2024-02-26T00:19:27;6.20;;;2.70;;
82869;SDS011;72645;47.136;15.420;2024-02-26T00:21:58;2.10;;;1.10;;
82869;SDS011;72645;47.136;15.420;2024-02-26T00:24:29;3.30;;;1.90;;
82869;SDS011;72645;47.136;15.420;2024-02-26T00:27:00;3.50;;;2.30;;
82869;SDS011;72645;47.136;15.420;2024-02-26T00:29:31;2.70;;;2.50;;
82869;SDS011;72645;47.136;15.420;2024-02-26T00:32:02;3.20;;;1.20;;
82869;SDS011;72645;47.136;15.420;2024-02-26T00:34:34;2.30;;;1.60;;
82869;SDS011;72645;47.136;15.420;2024-02-26T00:37:06;3.50;;;1.70;;
82869;SDS011;72645;47.136;15.420;2024-02-26T00:39:37;3.30;;;2.20;;
82869;SDS011;72645;47.136;15.420;2024-02-26T00:42:08;2.50;;;1.40;;
82869;SDS011;72645;47.136;15.420;2024-02-26T00:44:39;2.20;;;1.50;;
82869;SDS011;72645;47.136;15.420;2024-02-26T00:47:10;4.90;;;2.40;;
82869;SDS011;72645;47.136;15.420;2024-02-26T00:49:41;2.20;;;1.20;;
82869;SDS011;72645;47.136;15.420;2024-02-26T00:52:13;3.50;;;1.50;;
82869;SDS011;72645;47.136;15.420;2024-02-26T00:54:44;3.60;;;1.50;;
82869;SDS011;72645;47.136;15.420;2024-02-26T00:57:14;5.70;;;1.90;;
82869;SDS011;72645;47.136;15.420;2024-02-26T00:59:46;2.00;;;1.50;;
82869;SDS011;72645;47.136;15.420;2024-02-26T01:02:18;7.40;;;2.90;;
82869;SDS011;72645;47.136;15.420;2024-02-26T01:04:49;3.40;;;2.20;;
82869;SDS011;72645;47.136;15.420;2024-02-26T01:07:20;5.50;;;2.10;;
82869;SDS011;72645;47.136;15.420;2024-02-26T01:09:52;2.60;;;1.50;;
82869;SDS011;72645;47.136;15.420;2024-02-26T01:12:23;4.70;;;3.20;;
82869;SDS011;72645;47.136;15.420;2024-02-26T01:14:54;3.00;;;1.80;;
82869;SDS011;72645;47.136;15.420;2024-02-26T01:17:25;4.80;;;2.50;;
82869;SDS011;72645;47.136;15.420;2024-02-26T01:19:56;6.00;;;3.30;;
82869;SDS011;72645;47.136;15.420;2024-02-26T01:22:27;7.00;;;3.20;;
82869;SDS011;72645;47.136;15.420;2024-02-26T01:24:58;5.30;;;2.20;;
82869;SDS011;72645;47.136;15.420;2024-02-26T01:27:29;3.50;;;1.50;;
82869;SDS011;72645;47.136;15.420;2024-02-26T01:30:00;4.40;;;2.40;;
82869;SDS011;72645;47.136;15.420;2024-02-26T01:32:32;3.80;;;2.30;;
82869;SDS011;72645;47.136;15.420;2024-02-26T01:35:04;4.10;;;1.80;;
82869;SDS011;72645;47.136;15.420;2024-02-26T01:37:39;2.60;;;1.40;;
82869;SDS011;72645;47.136;15.420;2024-02-26T01:40:10;3.30;;;2.00;;
82869;SDS011;72645;47.136;15.420;2024-02-26T01:42:45;4.50;;;2.30;;
82869;SDS011;72645;47.136;15.420;2024-02-26T01:45:17;3.40;;;1.70;;
82869;SDS011;72645;47.136;15.420;2024-02-26T01:47:52;3.10;;;1.90;;
82869;SDS011;72645;47.136;15.420;2024-02-26T01:50:25;2.70;;;1.70;;
82869;SDS011;72645;47.136;15.420;2024-02-26T01:52:56;3.10;;;2.00;;
82869;SDS011;72645;47.136;15.420;2024-02-26T01:55:28;5.90;;;1.80;;
82869;SDS011;72645;47.136;15.420;2024-02-26T01:57:59;1.70;;;1.30;;
82869;SDS011;72645;47.136;15.420;2024-02-26T02:00:30;2.50;;;1.60;;
82869;SDS011;72645;47.136;15.420;2024-02-26T02:03:01;4.60;;;1.70;;
82869;SDS011;72645;47.136;15.420;2024-02-26T02:05:34;2.40;;;1.50;;
82869;SDS011;72645;47.136;15.420;2024-02-26T02:08:12;3.30;;;1.70;;
82869;SDS011;72645;47.136;15.420;2024-02-26T02:10:43;2.50;;;1.50;;
82869;SDS011;72645;47.136;15.420;2024-02-26T02:13:17;3.90;;;2.00;;
82869;SDS011;72645;47.136;15.420;2024-02-26T02:15:48;2.20;;;1.00;;
82869;SDS011;72645;47.136;15.420;2024-02-26T02:18:19;1.40;;;1.30;;
82869;SDS011;72645;47.136;15.420;2024-02-26T02:20:50;2.30;;;1.00;;
82869;SDS011;72645;47.136;15.420;2024-02-26T02:23:24;1.50;;;1.20;;
82869;SDS011;72645;47.136;15.420;2024-02-26T02:25:55;2.00;;;1.40;;
82869;SDS011;72645;47.136;15.420;2024-02-26T02:28:27;2.30;;;1.70;;
82869;SDS011;72645;47.136;15.420;2024-02-26T02:30:58;1.10;;;1.00;;
82869;SDS011;72645;47.136;15.420;2024-02-26T02:33:29;2.70;;;1.80;;
82869;SDS011;72645;47.136;15.420;2024-02-26T02:36:01;1.80;;;1.20;;
82869;SDS011;72645;47.136;15.420;2024-02-26T02:38:37;3.50;;;2.40;;
82869;SDS011;72645;47.136;15.420;2024-02-26T02:41:17;2.00;;;1.70;;
82869;SDS011;72645;47.136;15.420;2024-02-26T02:43:49;3.20;;;1.70;;
82869;SDS011;72645;47.136;15.420;2024-02-26T02:46:20;6.20;;;1.60;;
82869;SDS011;72645;47.136;15.420;2024-02-26T02:48:51;4.20;;;3.20;;
82869;SDS011;72645;47.136;15.420;2024-02-26T02:51:22;2.70;;;1.70;;
82869;SDS011;72645;47.136;15.420;2024-02-26T02:53:53;2.50;;;2.20;;
82869;SDS011;72645;47.136;15.420;2024-02-26T02:56:24;3.10;;;2.00;;
82869;SDS011;72645;47.136;15.420;2024-02-26T02:58:55;3.80;;;1.90;;
82869;SDS011;72645;47.136;15.420;2024-02-26T03:01:26;2.90;;;1.50;;
82869;SDS011;72645;47.136;15.420;2024-02-26T03:03:57;2.70;;;2.20;;
82869;SDS011;72645;47.136;15.420;2024-02-26T03:06:28;5.90;;;3.00;;
82869;SDS011;72645;47.136;15.420;2024-02-26T03:08:59;7.40;;;2.40;;
82869;SDS011;72645;47.136;15.420;2024-02-26T03:11:31;4.40;;;1.80;;
82869;SDS011;72645;47.136;15.420;2024-02-26T03:14:02;5.20;;;1.70;;
82869;SDS011;72645;47.136;15.420;2024-02-26T03:16:34;2.40;;;1.60;;
82869;SDS011;72645;47.136;15.420;2024-02-26T03:19:05;2.00;;;1.70;;
82869;SDS011;72645;47.136;15.420;2024-02-26T03:21:36;2.90;;;1.50;;
82869;SDS011;72645;47.136;15.420;2024-02-26T03:24:07;3.70;;;1.80;;
82869;SDS011;72645;47.136;15.420;2024-02-26T03:26:40;2.20;;;1.90;;
82869;SDS011;72645;47.136;15.420;2024-02-26T03:29:12;4.90;;;2.00;;
82869;SDS011;72645;47.136;15.420;2024-02-26T03:31:43;2.80;;;2.20;;
82869;SDS011;72645;47.136;15.420;2024-02-26T03:34:14;2.30;;;1.70;;
82869;SDS011;72645;47.136;15.420;2024-02-26T03:36:46;2.20;;;1.60;;
82869;SDS011;72645;47.136;15.420;2024-02-26T03:39:17;2.90;;;1.80;;
82869;SDS011;72645;47.136;15.420;2024-02-26T03:41:50;3.00;;;1.60;;
82869;SDS011;72645;47.136;15.420;2024-02-26T03:44:22;1.10;;;1.00;;
82869;SDS011;72645;47.136;15.420;2024-02-26T03:46:53;2.20;;;1.20;;
82869;SDS011;72645;47.136;15.420;2024-02-26T03:49:24;1.30;;;1.00;;
82869;SDS011;72645;47.136;15.420;2024-02-26T03:51:55;1.80;;;1.50;;
82869;SDS011;72645;47.136;15.420;2024-02-26T03:54:26;2.00;;;1.30;;
82869;SDS011;72645;47.136;15.420;2024-02-26T03:56:57;2.20;;;1.60;;
82869;SDS011;72645;47.136;15.420;2024-02-26T03:59:28;3.90;;;2.10;;
82869;SDS011;72645;47.136;15.420;2024-02-26T04:01:59;2.40;;;1.50;;
82869;SDS011;72645;47.136;15.420;2024-02-26T04:04:33;4.20;;;1.40;;
82869;SDS011;72645;47.136;15.420;2024-02-26T04:07:04;1.90;;;1.60;;
82869;SDS011;72645;47.136;15.420;2024-02-26T04:09:36;3.50;;;1.50;;
82869;SDS011;72645;47.136;15.420;2024-02-26T04:12:09;6.00;;;1.20;;
82869;SDS011;72645;47.136;15.420;2024-02-26T04:14:40;3.50;;;1.40;;
82869;SDS011;72645;47.136;15.420;2024-02-26T04:17:12;3.10;;;1.70;;
82869;SDS011;72645;47.136;15.420;2024-02-26T04:19:43;3.40;;;1.70;;
82869;SDS011;72645;47.136;15.420;2024-02-26T04:22:14;3.20;;;2.00;;
82869;SDS011;72645;47.136;15.420;2024-02-26T04:24:45;4.20;;;2.10;;
82869;SDS011;72645;47.136;15.420;2024-02-26T04:27:16;3.50;;;1.70;;
82869;SDS011;72645;47.136;15.420;2024-02-26T04:29:47;4.10;;;1.90;;
82869;SDS011;72645;47.136;15.420;2024-02-26T04:32:18;2.20;;;1.30;;
82869;SDS011;72645;47.136;15.420;2024-02-26T04:34:49;8.80;;;2.90;;
82869;SDS011;72645;47.136;15.420;2024-02-26T04:37:21;4.20;;;1.80;;
82869;SDS011;72645;47.136;15.420;2024-02-26T04:39:52;3.20;;;1.80;;
82869;SDS011;72645;47.136;15.420;2024-02-26T04:42:23;3.90;;;2.20;;
82869;SDS011;72645;47.136;15.420;2024-02-26T04:44:54;3.50;;;2.00;;
82869;SDS011;72645;47.136;15.420;2024-02-26T04:47:25;2.00;;;1.40;;
82869;SDS011;72645;47.136;15.420;2024-02-26T04:49:56;4.40;;;1.80;;
82869;SDS011;72645;47.136;15.420;2024-02-26T04:52:27;1.60;;;1.00;;
82869;SDS011;72645;47.136;15.420;2024-02-26T04:54:58;2.70;;;1.30;;
82869;SDS011;72645;47.136;15.420;2024-02-26T04:57:29;3.70;;;2.10;;
82869;SDS011;72645;47.136;15.420;2024-02-26T05:00:00;4.40;;;1.80;;
82869;SDS011;72645;47.136;15.420;2024-02-26T05:02:33;2.60;;;1.40;;
82869;SDS011;72645;47.136;15.420;2024-02-26T05:05:06;4.20;;;2.40;;
82869;SDS011;72645;47.136;15.420;2024-02-26T05:07:41;3.30;;;3.10;;
82869;SDS011;72645;47.136;15.420;2024-02-26T05:10:12;3.50;;;1.50;;
82869;SDS011;72645;47.136;15.420;2024-02-26T05:12:43;3.90;;;1.20;;
82869;SDS011;72645;47.136;15.420;2024-02-26T05:15:14;2.90;;;1.30;;
82869;SDS011;72645;47.136;15.420;2024-02-26T05:17:46;2.40;;;1.20;;
82869;SDS011;72645;47.136;15.420;2024-02-26T05:20:17;2.20;;;1.60;;
82869;SDS011;72645;47.136;15.420;2024-02-26T05:22:48;1.90;;;1.30;;
82869;SDS011;72645;47.136;15.420;2024-02-26T05:25:19;3.40;;;1.40;;
82869;SDS011;72645;47.136;15.420;2024-02-26T05:27:50;4.00;;;1.20;;
82869;SDS011;72645;47.136;15.420;2024-02-26T05:30:21;2.00;;;1.40;;
82869;SDS011;72645;47.136;15.420;2024-02-26T05:32:55;2.50;;;1.70;;
82869;SDS011;72645;47.136;15.420;2024-02-26T05:35:26;2.90;;;1.90;;
82869;SDS011;72645;47.136;15.420;2024-02-26T05:37:57;2.50;;;1.10;;
82869;SDS011;72645;47.136;15.420;2024-02-26T05:40:28;4.70;;;1.40;;
82869;SDS011;72645;47.136;15.420;2024-02-26T05:42:59;6.30;;;1.20;;
82869;SDS011;72645;47.136;15.420;2024-02-26T05:45:30;3.30;;;1.80;;
82869;SDS011;72645;47.136;15.420;2024-02-26T05:48:01;5.80;;;1.60;;
82869;SDS011;72645;47.136;15.420;2024-02-26T05:50:32;2.90;;;1.50;;
82869;SDS011;72645;47.136;15.420;2024-02-26T05:53:04;5.00;;;1.80;;
82869;SDS011;72645;47.136;15.420;2024-02-26T05:55:35;4.10;;;2.90;;
82869;SDS011;72645;47.136;15.420;2024-02-26T05:58:06;9.80;;;2.70;;
82869;SDS011;72645;47.136;15.420;2024-02-26T06:00:37;3.40;;;2.10;;
82869;SDS011;72645;47.136;15.420;2024-02-26T06:03:08;9.20;;;2.00;;
82869;SDS011;72645;47.136;15.420;2024-02-26T06:05:39;4.50;;;2.10;;
82869;SDS011;72645;47.136;15.420;2024-02-26T06:08:13;4.70;;;2.90;;
82869;SDS011;72645;47.136;15.420;2024-02-26T06:10:44;4.70;;;2.70;;
82869;SDS011;72645;47.136;15.420;2024-02-26T06:13:15;4.90;;;3.60;;
82869;SDS011;72645;47.136;15.420;2024-02-26T06:15:46;4.00;;;2.30;;
82869;SDS011;72645;47.136;15.420;2024-02-26T06:18:18;7.70;;;2.40;;
82869;SDS011;72645;47.136;15.420;2024-02-26T06:20:49;4.60;;;2.30;;
82869;SDS011;72645;47.136;15.420;2024-02-26T06:23:20;5.10;;;2.40;;
82869;SDS011;72645;47.136;15.420;2024-02-26T06:25:51;5.70;;;3.20;;
82869;SDS011;72645;47.136;15.420;2024-02-26T06:28:22;6.10;;;3.60;;
82869;SDS011;72645;47.136;15.420;2024-02-26T06:30:53;8.20;;;3.30;;
82869;SDS011;72645;47.136;15.420;2024-02-26T06:33:24;16.70;;;7.70;;
82869;SDS011;72645;47.136;15.420;2024-02-26T06:35:55;26.00;;;12.30;;
82869;SDS011;72645;47.136;15.420;2024-02-26T06:38:26;20.00;;;11.20;;
82869;SDS011;72645;47.136;15.420;2024-02-26T06:40:57;8.40;;;5.10;;
82869;SDS011;72645;47.136;15.420;2024-02-26T06:43:29;8.70;;;4.60;;
82869;SDS011;72645;47.136;15.420;2024-02-26T06:46:00;7.00;;;4.30;;
82869;SDS011;72645;47.136;15.420;2024-02-26T06:48:31;7.00;;;5.30;;
82869;SDS011;72645;47.136;15.420;2024-02-26T06:51:05;7.10;;;4.50;;
82869;SDS011;72645;47.136;15.420;2024-02-26T06:53:36;5.30;;;2.90;;
82869;SDS011;72645;47.136;15.420;2024-02-26T06:56:07;8.10;;;3.60;;
82869;SDS011;72645;47.136;15.420;2024-02-26T06:58:38;5.50;;;3.10;;
82869;SDS011;72645;47.136;15.420;2024-02-26T07:01:09;7.60;;;3.40;;
82869;SDS011;72645;47.136;15.420;2024-02-26T07:03:41;10.30;;;4.60;;
82869;SDS011;72645;47.136;15.420;2024-02-26T07:06:12;6.60;;;3.10;;
82869;SDS011;72645;47.136;15.420;2024-02-26T07:08:43;9.10;;;4.00;;
82869;SDS011;72645;47.136;15.420;2024-02-26T07:11:14;7.80;;;3.80;;
82869;SDS011;72645;47.136;15.420;2024-02-26T07:13:47;6.10;;;3.30;;
82869;SDS011;72645;47.136;15.420;2024-02-26T07:16:18;9.40;;;4.30;;
82869;SDS011;72645;47.136;15.420;2024-02-26T07:18:49;8.20;;;3.60;;
82869;SDS011;72645;47.136;15.420;2024-02-26T07:21:20;7.40;;;4.00;;
82869;SDS011;72645;47.136;15.420;2024-02-26T07:23:51;7.40;;;4.10;;
82869;SDS011;72645;47.136;15.420;2024-02-26T07:26:23;9.20;;;4.90;;
82869;SDS011;72645;47.136;15.420;2024-02-26T07:28:54;13.00;;;6.10;;
82869;SDS011;72645;47.136;15.420;2024-02-26T07:31:25;12.10;;;5.40;;
82869;SDS011;72645;47.136;15.420;2024-02-26T07:33:56;9.10;;;5.80;;
82869;SDS011;72645;47.136;15.420;2024-02-26T07:36:27;9.90;;;4.60;;
82869;SDS011;72645;47.136;15.420;2024-02-26T07:38:58;9.30;;;4.30;;
82869;SDS011;72645;47.136;15.420;2024-02-26T07:41:29;11.50;;;4.80;;
82869;SDS011;72645;47.136;15.420;2024-02-26T07:44:00;8.30;;;4.60;;
82869;SDS011;72645;47.136;15.420;2024-02-26T07:46:31;6.50;;;3.60;;
82869;SDS011;72645;47.136;15.420;2024-02-26T07:49:03;9.60;;;3.90;;
82869;SDS011;72645;47.136;15.420;2024-02-26T07:51:34;6.20;;;4.00;;
82869;SDS011;72645;47.136;15.420;2024-02-26T07:54:05;8.60;;;3.40;;
82869;SDS011;72645;47.136;15.420;2024-02-26T07:56:36;7.20;;;3.70;;
82869;SDS011;72645;47.136;15.420;2024-02-26T07:59:07;7.80;;;3.50;;
82869;SDS011;72645;47.136;15.420;2024-02-26T08:01:38;6.40;;;3.70;;
82869;SDS011;72645;47.136;15.420;2024-02-26T08:04:10;9.00;;;4.80;;
82869;SDS011;72645;47.136;15.420;2024-02-26T08:06:41;9.60;;;3.90;;
82869;SDS011;72645;47.136;15.420;2024-02-26T08:09:12;8.60;;;3.80;;
82869;SDS011;72645;47.136;15.420;2024-02-26T08:11:43;8.00;;;3.20;;
82869;SDS011;72645;47.136;15.420;2024-02-26T08:14:14;7.60;;;2.50;;
82869;SDS011;72645;47.136;15.420;2024-02-26T08:16:45;5.90;;;2.50;;
82869;SDS011;72645;47.136;15.420;2024-02-26T08:19:16;5.10;;;2.80;;
82869;SDS011;72645;47.136;15.420;2024-02-26T08:21:47;6.20;;;3.20;;
82869;SDS011;72645;47.136;15.420;2024-02-26T08:24:19;5.70;;;4.20;;
82869;SDS011;72645;47.136;15.420;2024-02-26T08:26:49;6.70;;;3.40;;
82869;SDS011;72645;47.136;15.420;2024-02-26T08:29:21;7.50;;;3.60;;
82869;SDS011;72645;47.136;15.420;2024-02-26T08:31:51;5.70;;;3.30;;
82869;SDS011;72645;47.136;15.420;2024-02-26T08:34:22;8.10;;;4.30;;
82869;SDS011;72645;47.136;15.420;2024-02-26T08:36:54;5.90;;;2.90;;
82869;SDS011;72645;47.136;15.420;2024-02-26T08:39:25;5.80;;;3.20;;
82869;SDS011;72645;47.136;15.420;2024-02-26T08:41:56;5.00;;;3.60;;
82869;SDS011;72645;47.136;15.420;2024-02-26T08:44:27;8.60;;;3.40;;
82869;SDS011;72645;47.136;15.420;2024-02-26T08:46:58;6.30;;;2.70;;
82869;SDS011;72645;47.136;15.420;2024-02-26T08:49:29;7.00;;;3.70;;
82869;SDS011;72645;47.136;15.420;2024-02-26T08:52:00;7.90;;;4.30;;
82869;SDS011;72645;47.136;15.420;2024-02-26T08:54:33;7.80;;;3.80;;
82869;SDS011;72645;47.136;15.420;2024-02-26T08:57:04;5.40;;;3.40;;
82869;SDS011;72645;47.136;15.420;2024-02-26T08:59:35;7.40;;;3.60;;
82869;SDS011;72645;47.136;15.420;2024-02-26T09:02:07;7.90;;;3.80;;
82869;SDS011;72645;47.136;15.420;2024-02-26T09:04:38;6.80;;;2.80;;
82869;SDS011;72645;47.136;15.420;2024-02-26T09:07:09;6.60;;;2.70;;
82869;SDS011;72645;47.136;15.420;2024-02-26T09:09:40;5.90;;;2.70;;
82869;SDS011;72645;47.136;15.420;2024-02-26T09:12:11;5.50;;;3.40;;
82869;SDS011;72645;47.136;15.420;2024-02-26T09:14:42;6.50;;;3.30;;
82869;SDS011;72645;47.136;15.420;2024-02-26T09:17:13;5.20;;;2.10;;
82869;SDS011;72645;47.136;15.420;2024-02-26T09:19:44;4.80;;;1.90;;
82869;SDS011;72645;47.136;15.420;2024-02-26T09:22:15;4.80;;;2.80;;
82869;SDS011;72645;47.136;15.420;2024-02-26T09:24:46;6.40;;;2.50;;
82869;SDS011;72645;47.136;15.420;2024-02-26T09:27:20;7.10;;;2.60;;
82869;SDS011;72645;47.136;15.420;2024-02-26T09:29:51;8.10;;;3.50;;
82869;SDS011;72645;47.136;15.420;2024-02-26T09:32:22;5.20;;;2.80;;
82869;SDS011;72645;47.136;15.420;2024-02-26T09:34:54;4.80;;;2.60;;
82869;SDS011;72645;47.136;15.420;2024-02-26T09:37:25;3.30;;;2.00;;
82869;SDS011;72645;47.136;15.420;2024-02-26T09:39:56;2.70;;;1.70;;
82869;SDS011;72645;47.136;15.420;2024-02-26T09:42:27;5.70;;;2.50;;
82869;SDS011;72645;47.136;15.420;2024-02-26T09:45:00;5.90;;;2.50;;
82869;SDS011;72645;47.136;15.420;2024-02-26T09:47:40;5.20;;;2.20;;
82869;SDS011;72645;47.136;15.420;2024-02-26T09:50:12;6.40;;;3.10;;
82869;SDS011;72645;47.136;15.420;2024-02-26T09:52:46;3.20;;;2.00;;
82869;SDS011;72645;47.136;15.420;2024-02-26T09:55:17;4.10;;;2.80;;
82869;SDS011;72645;47.136;15.420;2024-02-26T09:57:48;10.60;;;2.90;;
82869;SDS011;72645;47.136;15.420;2024-02-26T10:00:22;3.40;;;1.90;;
82869;SDS011;72645;47.136;15.420;2024-02-26T10:02:54;5.10;;;2.80;;
82869;SDS011;72645;47.136;15.420;2024-02-26T10:05:27;5.50;;;2.20;;
82869;SDS011;72645;47.136;15.420;2024-02-26T10:07:58;7.10;;;2.50;;
82869;SDS011;72645;47.136;15.420;2024-02-26T10:10:30;5.60;;;3.00;;
82869;SDS011;72645;47.136;15.420;2024-02-26T10:13:02;5.00;;;2.00;;
82869;SDS011;72645;47.136;15.420;2024-02-26T10:15:38;7.90;;;2.90;;
82869;SDS011;72645;47.136;15.420;2024-02-26T10:18:09;6.30;;;2.50;;
82869;SDS011;72645;47.136;15.420;2024-02-26T10:20:40;4.60;;;2.20;;
82869;SDS011;72645;47.136;15.420;2024-02-26T10:23:11;5.30;;;2.10;;
82869;SDS011;72645;47.136;15.420;2024-02-26T10:25:51;2.60;;;1.50;;
82869;SDS011;72645;47.136;15.420;2024-02-26T10:28:23;5.80;;;1.50;;
82869;SDS011;72645;47.136;15.420;2024-02-26T10:30:55;3.00;;;1.30;;
82869;SDS011;72645;47.136;15.420;2024-02-26T10:33:27;2.60;;;1.50;;
82869;SDS011;72645;47.136;15.420;2024-02-26T10:36:03;3.80;;;2.00;;
82869;SDS011;72645;47.136;15.420;2024-02-26T10:38:35;2.40;;;1.60;;
82869;SDS011;72645;47.136;15.420;2024-02-26T10:41:07;5.60;;;1.90;;
82869;SDS011;72645;47.136;15.420;2024-02-26T10:43:43;2.20;;;1.50;;
82869;SDS011;72645;47.136;15.420;2024-02-26T10:46:16;7.80;;;1.60;;
82869;SDS011;72645;47.136;15.420;2024-02-26T10:48:50;3.90;;;1.50;;
82869;SDS011;72645;47.136;15.420;2024-02-26T10:51:25;3.70;;;1.60;;
82869;SDS011;72645;47.136;15.420;2024-02-26T10:53:58;4.10;;;1.90;;
82869;SDS011;72645;47.136;15.420;2024-02-26T10:56:33;5.00;;;2.20;;
82869;SDS011;72645;47.136;15.420;2024-02-26T10:59:07;2.80;;;1.20;;
82869;SDS011;72645;47.136;15.420;2024-02-26T11:01:38;1.50;;;0.80;;
82869;SDS011;72645;47.136;15.420;2024-02-26T11:04:11;4.10;;;1.40;;
82869;SDS011;72645;47.136;15.420;2024-02-26T11:06:44;2.10;;;1.40;;
82869;SDS011;72645;47.136;15.420;2024-02-26T11:09:16;1.80;;;1.10;;
82869;SDS011;72645;47.136;15.420;2024-02-26T11:11:48;4.20;;;1.00;;
82869;SDS011;72645;47.136;15.420;2024-02-26T11:14:23;3.80;;;1.30;;
82869;SDS011;72645;47.136;15.420;2024-02-26T11:16:56;2.30;;;1.00;;
82869;SDS011;72645;47.136;15.420;2024-02-26T11:19:29;1.50;;;0.80;;
82869;SDS011;72645;47.136;15.420;2024-02-26T11:22:05;3.90;;;1.10;;
82869;SDS011;72645;47.136;15.420;2024-02-26T11:24:48;2.70;;;0.80;;
82869;SDS011;72645;47.136;15.420;2024-02-26T11:27:19;2.10;;;1.00;;
82869;SDS011;72645;47.136;15.420;2024-02-26T11:29:58;2.90;;;1.30;;
82869;SDS011;72645;47.136;15.420;2024-02-26T11:32:33;1.60;;;0.80;;
82869;SDS011;72645;47.136;15.420;2024-02-26T11:35:05;3.60;;;0.80;;
82869;SDS011;72645;47.136;15.420;2024-02-26T11:37:38;2.00;;;0.90;;
82869;SDS011;72645;47.136;15.420;2024-02-26T11:40:13;2.30;;;0.70;;
82869;SDS011;72645;47.136;15.420;2024-02-26T11:42:46;5.10;;;0.90;;
82869;SDS011;72645;47.136;15.420;2024-02-26T11:48:28;1.20;;;1.00;;
82869;SDS011;72645;47.136;15.420;2024-02-26T11:50:59;0.90;;;0.80;;
82869;SDS011;72645;47.136;15.420;2024-02-26T11:53:34;3.20;;;0.90;;
82869;SDS011;72645;47.136;15.420;2024-02-26T11:56:23;4.10;;;1.00;;
82869;SDS011;72645;47.136;15.420;2024-02-26T11:59:01;2.70;;;0.80;;
82869;SDS011;72645;47.136;15.420;2024-02-26T12:01:41;9.80;;;4.50;;
82869;SDS011;72645;47.136;15.420;2024-02-26T12:04:18;2.50;;;1.00;;
82869;SDS011;72645;47.136;15.420;2024-02-26T12:06:55;1.50;;;0.90;;
82869;SDS011;72645;47.136;15.420;2024-02-26T12:09:33;3.50;;;0.90;;
82869;SDS011;72645;47.136;15.420;2024-02-26T12:12:06;2.00;;;0.70;;
82869;SDS011;72645;47.136;15.420;2024-02-26T12:14:39;1.30;;;0.70;;
82869;SDS011;72645;47.136;15.420;2024-02-26T12:17:20;2.90;;;1.20;;
82869;SDS011;72645;47.136;15.420;2024-02-26T12:19:53;2.40;;;1.30;;
82869;SDS011;72645;47.136;15.420;2024-02-26T12:22:24;1.60;;;0.80;;
82869;SDS011;72645;47.136;15.420;2024-02-26T12:24:59;2.40;;;0.90;;
82869;SDS011;72645;47.136;15.420;2024-02-26T12:27:31;2.80;;;1.10;;
82869;SDS011;72645;47.136;15.420;2024-02-26T12:30:02;5.50;;;1.40;;
82869;SDS011;72645;47.136;15.420;2024-02-26T12:32:35;3.10;;;1.20;;
82869;SDS011;72645;47.136;15.420;2024-02-26T12:35:07;1.70;;;1.20;;
82869;SDS011;72645;47.136;15.420;2024-02-26T12:37:38;3.70;;;1.40;;
82869;SDS011;72645;47.136;15.420;2024-02-26T12:40:11;2.00;;;1.00;;
82869;SDS011;72645;47.136;15.420;2024-02-26T12:42:42;2.90;;;1.50;;
82869;SDS011;72645;47.136;15.420;2024-02-26T12:45:14;2.60;;;1.70;;
82869;SDS011;72645;47.136;15.420;2024-02-26T12:47:45;2.90;;;1.00;;
82869;SDS011;72645;47.136;15.420;2024-02-26T12:50:17;3.90;;;1.20;;
82869;SDS011;72645;47.136;15.420;2024-02-26T12:52:49;2.50;;;1.40;;
82869;SDS011;72645;47.136;15.420;2024-02-26T12:55:20;3.30;;;1.20;;
82869;SDS011;72645;47.136;15.420;2024-02-26T12:57:51;2.40;;;1.10;;
82869;SDS011;72645;47.136;15.420;2024-02-26T13:00:24;2.20;;;1.00;;
82869;SDS011;72645;47.136;15.420;2024-02-26T13:02:56;2.70;;;1.20;;
82869;SDS011;72645;47.136;15.420;2024-02-26T13:05:30;3.50;;;2.10;;
82869;SDS011;72645;47.136;15.420;2024-02-26T13:08:02;2.30;;;1.10;;
82869;SDS011;72645;47.136;15.420;2024-02-26T13:10:37;1.40;;;0.90;;
82869;SDS011;72645;47.136;15.420;2024-02-26T13:13:08;3.30;;;0.90;;
82869;SDS011;72645;47.136;15.420;2024-02-26T13:15:39;4.30;;;0.90;;
82869;SDS011;72645;47.136;15.420;2024-02-26T13:18:10;2.60;;;0.80;;
82869;SDS011;72645;47.136;15.420;2024-02-26T13:20:43;1.10;;;0.70;;
82869;SDS011;72645;47.136;15.420;2024-02-26T13:23:14;2.00;;;1.00;;
82869;SDS011;72645;47.136;15.420;2024-02-26T13:25:45;2.40;;;1.50;;
82869;SDS011;72645;47.136;15.420;2024-02-26T13:28:16;2.50;;;0.90;;
82869;SDS011;72645;47.136;15.420;2024-02-26T13:30:51;1.50;;;0.80;;
82869;SDS011;72645;47.136;15.420;2024-02-26T13:33:25;2.60;;;1.10;;
82869;SDS011;72645;47.136;15.420;2024-02-26T13:35:58;2.40;;;1.00;;
82869;SDS011;72645;47.136;15.420;2024-02-26T13:38:29;2.70;;;1.70;;
82869;SDS011;72645;47.136;15.420;2024-02-26T13:41:01;2.20;;;1.30;;
82869;SDS011;72645;47.136;15.420;2024-02-26T13:43:34;2.10;;;0.80;;
82869;SDS011;72645;47.136;15.420;2024-02-26T13:46:05;3.50;;;1.20;;
82869;SDS011;72645;47.136;15.420;2024-02-26T13:48:36;3.20;;;0.90;;
82869;SDS011;72645;47.136;15.420;2024-02-26T13:51:07;2.30;;;0.80;;
82869;SDS011;72645;47.136;15.420;2024-02-26T13:53:38;1.60;;;0.80;;
82869;SDS011;72645;47.136;15.420;2024-02-26T13:56:09;2.10;;;0.80;;
82869;SDS011;72645;47.136;15.420;2024-02-26T13:58:41;3.30;;;1.00;;
82869;SDS011;72645;47.136;15.420;2024-02-26T14:01:12;2.50;;;0.80;;
82869;SDS011;72645;47.136;15.420;2024-02-26T14:03:43;2.70;;;1.20;;
82869;SDS011;72645;47.136;15.420;2024-02-26T14:06:14;2.70;;;0.80;;
82869;SDS011;72645;47.136;15.420;2024-02-26T14:08:45;2.00;;;1.20;;
82869;SDS011;72645;47.136;15.420;2024-02-26T14:11:16;2.40;;;1.00;;
82869;SDS011;72645;47.136;15.420;2024-02-26T14:13:47;1.40;;;1.00;;
82869;SDS011;72645;47.136;15.420;2024-02-26T14:16:18;2.40;;;0.90;;
82869;SDS011;72645;47.136;15.420;2024-02-26T14:18:49;4.00;;;1.00;;
82869;SDS011;72645;47.136;15.420;2024-02-26T14:21:20;5.30;;;1.10;;
82869;SDS011;72645;47.136;15.420;2024-02-26T14:23:51;1.10;;;0.90;;
82869;SDS011;72645;47.136;15.420;2024-02-26T14:26:23;2.80;;;1.00;;
82869;SDS011;72645;47.136;15.420;2024-02-26T14:28:54;3.20;;;1.20;;
82869;SDS011;72645;47.136;15.420;2024-02-26T14:31:25;13.60;;;7.40;;
82869;SDS011;72645;47.136;15.420;2024-02-26T14:33:56;5.90;;;3.40;;
82869;SDS011;72645;47.136;15.420;2024-02-26T14:36:27;3.00;;;1.60;;
82869;SDS011;72645;47.136;15.420;2024-02-26T14:38:58;2.60;;;0.80;;
82869;SDS011;72645;47.136;15.420;2024-02-26T14:41:29;2.00;;;1.30;;
82869;SDS011;72645;47.136;15.420;2024-02-26T14:44:00;3.40;;;0.60;;
82869;SDS011;72645;47.136;15.420;2024-02-26T14:46:31;2.20;;;1.10;;
82869;SDS011;72645;47.136;15.420;2024-02-26T14:49:03;2.40;;;1.10;;
82869;SDS011;72645;47.136;15.420;2024-02-26T14:51:35;2.40;;;0.70;;
82869;SDS011;72645;47.136;15.420;2024-02-26T14:54:07;2.30;;;1.10;;
82869;SDS011;72645;47.136;15.420;2024-02-26T14:56:38;2.90;;;0.90;;
82869;SDS011;72645;47.136;15.420;2024-02-26T14:59:09;3.00;;;1.00;;
82869;SDS011;72645;47.136;15.420;2024-02-26T15:01:40;4.00;;;1.50;;
82869;SDS011;72645;47.136;15.420;2024-02-26T15:04:14;5.20;;;1.50;;